sensor_id;sensor_type;location;lat;lon;timestamp;P1;durP1;ratioP1;P2;durP2;ratioP2
19189;SDS011;9727;50.200;19.038;2023-05-14T00:01:52;11.97;;;8.10;;
19189;SDS011;9727;50.200;19.038;2023-05-14T00:04:19;16.57;;;8.73;;
19189;SDS011;9727;50.200;19.038;2023-05-14T00:06:45;24.63;;;13.13;;
19189;SDS011;9727;50.200;19.038;2023-05-14T00:09:12;23.23;;;14.13;;
19189;SDS011;9727;50.200;19.038;2023-05-14T00:11:39;23.70;;;13.63;;
19189;SDS011;9727;50.200;19.038;2023-05-14T00:14:06;21.87;;;11.70;;
19189;SDS011;9727;50.200;19.038;2023-05-14T00:16:34;19.47;;;11.10;;
19189;SDS011;9727;50.200;19.038;2023-05-14T00:19:00;17.40;;;10.97;;
19189;SDS011;9727;50.200;19.038;2023-05-14T00:21:27;22.10;;;12.80;;
19189;SDS011;9727;50.200;19.038;2023-05-14T00:23:53;22.13;;;11.73;;
19189;SDS011;9727;50.200;19.038;2023-05-14T00:26:20;16.93;;;10.57;;
19189;SDS011;9727;50.200;19.038;2023-05-14T00:28:46;11.87;;;8.23;;
19189;SDS011;9727;50.200;19.038;2023-05-14T00:31:13;15.13;;;8.00;;
19189;SDS011;9727;50.200;19.038;2023-05-14T00:33:41;13.27;;;7.77;;
19189;SDS011;9727;50.200;19.038;2023-05-14T00:36:11;13.60;;;8.23;;
19189;SDS011;9727;50.200;19.038;2023-05-14T00:38:38;13.50;;;7.97;;
19189;SDS011;9727;50.200;19.038;2023-05-14T00:41:04;13.80;;;8.10;;
19189;SDS011;9727;50.200;19.038;2023-05-14T00:43:31;12.97;;;8.67;;
19189;SDS011;9727;50.200;19.038;2023-05-14T00:45:58;13.30;;;8.00;;
19189;SDS011;9727;50.200;19.038;2023-05-14T00:48:25;19.57;;;10.60;;
19189;SDS011;9727;50.200;19.038;2023-05-14T00:50:53;26.70;;;15.17;;
19189;SDS011;9727;50.200;19.038;2023-05-14T00:53:20;40.47;;;21.33;;
19189;SDS011;9727;50.200;19.038;2023-05-14T00:55:48;37.40;;;20.37;;
19189;SDS011;9727;50.200;19.038;2023-05-14T00:58:15;25.23;;;13.97;;
19189;SDS011;9727;50.200;19.038;2023-05-14T01:00:43;20.67;;;12.37;;
19189;SDS011;9727;50.200;19.038;2023-05-14T01:03:09;19.37;;;10.33;;
19189;SDS011;9727;50.200;19.038;2023-05-14T01:05:38;15.70;;;10.53;;
19189;SDS011;9727;50.200;19.038;2023-05-14T01:08:12;13.57;;;9.13;;
19189;SDS011;9727;50.200;19.038;2023-05-14T01:10:44;13.63;;;9.10;;
19189;SDS011;9727;50.200;19.038;2023-05-14T01:13:15;15.37;;;8.83;;
19189;SDS011;9727;50.200;19.038;2023-05-14T01:15:45;11.97;;;8.47;;
19189;SDS011;9727;50.200;19.038;2023-05-14T01:18:12;13.67;;;8.13;;
19189;SDS011;9727;50.200;19.038;2023-05-14T01:20:40;13.43;;;8.90;;
19189;SDS011;9727;50.200;19.038;2023-05-14T01:23:17;13.77;;;8.23;;
19189;SDS011;9727;50.200;19.038;2023-05-14T01:25:43;13.83;;;9.17;;
19189;SDS011;9727;50.200;19.038;2023-05-14T01:28:11;13.03;;;8.30;;
19189;SDS011;9727;50.200;19.038;2023-05-14T01:30:41;13.53;;;8.00;;
19189;SDS011;9727;50.200;19.038;2023-05-14T01:33:12;12.43;;;8.47;;
19189;SDS011;9727;50.200;19.038;2023-05-14T01:35:40;14.37;;;8.17;;
19189;SDS011;9727;50.200;19.038;2023-05-14T01:38:08;14.20;;;8.50;;
19189;SDS011;9727;50.200;19.038;2023-05-14T01:40:37;14.50;;;9.10;;
19189;SDS011;9727;50.200;19.038;2023-05-14T01:43:04;12.70;;;8.10;;
19189;SDS011;9727;50.200;19.038;2023-05-14T01:45:33;12.33;;;8.23;;
19189;SDS011;9727;50.200;19.038;2023-05-14T01:48:00;12.63;;;8.70;;
19189;SDS011;9727;50.200;19.038;2023-05-14T01:50:26;13.03;;;8.27;;
19189;SDS011;9727;50.200;19.038;2023-05-14T01:52:53;13.33;;;8.77;;
19189;SDS011;9727;50.200;19.038;2023-05-14T01:55:20;15.57;;;8.67;;
19189;SDS011;9727;50.200;19.038;2023-05-14T01:57:49;14.07;;;8.37;;
19189;SDS011;9727;50.200;19.038;2023-05-14T02:00:16;14.07;;;8.73;;
19189;SDS011;9727;50.200;19.038;2023-05-14T02:02:42;12.27;;;8.80;;
19189;SDS011;9727;50.200;19.038;2023-05-14T02:05:09;14.00;;;8.63;;
19189;SDS011;9727;50.200;19.038;2023-05-14T02:07:36;15.00;;;8.40;;
19189;SDS011;9727;50.200;19.038;2023-05-14T02:10:02;12.20;;;8.63;;
19189;SDS011;9727;50.200;19.038;2023-05-14T02:12:29;18.87;;;9.83;;
19189;SDS011;9727;50.200;19.038;2023-05-14T02:14:57;13.47;;;9.23;;
19189;SDS011;9727;50.200;19.038;2023-05-14T02:17:24;13.47;;;9.07;;
19189;SDS011;9727;50.200;19.038;2023-05-14T02:19:51;16.07;;;8.60;;
19189;SDS011;9727;50.200;19.038;2023-05-14T02:22:18;15.33;;;9.17;;
19189;SDS011;9727;50.200;19.038;2023-05-14T02:24:44;16.40;;;9.53;;
19189;SDS011;9727;50.200;19.038;2023-05-14T02:27:11;15.67;;;9.40;;
19189;SDS011;9727;50.200;19.038;2023-05-14T02:29:37;12.83;;;9.37;;
19189;SDS011;9727;50.200;19.038;2023-05-14T02:32:06;13.23;;;8.93;;
19189;SDS011;9727;50.200;19.038;2023-05-14T02:34:33;14.77;;;9.43;;
19189;SDS011;9727;50.200;19.038;2023-05-14T02:36:59;15.10;;;9.30;;
19189;SDS011;9727;50.200;19.038;2023-05-14T02:39:26;13.40;;;8.53;;
19189;SDS011;9727;50.200;19.038;2023-05-14T02:41:52;14.23;;;8.67;;
19189;SDS011;9727;50.200;19.038;2023-05-14T02:44:19;15.77;;;9.03;;
19189;SDS011;9727;50.200;19.038;2023-05-14T02:46:46;10.70;;;8.27;;
19189;SDS011;9727;50.200;19.038;2023-05-14T02:49:14;14.43;;;9.37;;
19189;SDS011;9727;50.200;19.038;2023-05-14T02:51:41;11.67;;;8.70;;
19189;SDS011;9727;50.200;19.038;2023-05-14T02:54:09;15.60;;;9.23;;
19189;SDS011;9727;50.200;19.038;2023-05-14T02:56:35;12.13;;;8.67;;
19189;SDS011;9727;50.200;19.038;2023-05-14T02:59:02;15.00;;;8.70;;
19189;SDS011;9727;50.200;19.038;2023-05-14T03:01:29;12.10;;;8.57;;
19189;SDS011;9727;50.200;19.038;2023-05-14T03:03:55;14.63;;;9.63;;
19189;SDS011;9727;50.200;19.038;2023-05-14T03:06:23;14.00;;;8.70;;
19189;SDS011;9727;50.200;19.038;2023-05-14T03:08:50;12.93;;;8.60;;
19189;SDS011;9727;50.200;19.038;2023-05-14T03:11:16;13.37;;;8.73;;
19189;SDS011;9727;50.200;19.038;2023-05-14T03:13:43;13.07;;;8.50;;
19189;SDS011;9727;50.200;19.038;2023-05-14T03:16:10;12.73;;;8.43;;
19189;SDS011;9727;50.200;19.038;2023-05-14T03:18:36;16.07;;;8.97;;
19189;SDS011;9727;50.200;19.038;2023-05-14T03:21:03;11.20;;;8.47;;
19189;SDS011;9727;50.200;19.038;2023-05-14T03:23:31;15.13;;;9.03;;
19189;SDS011;9727;50.200;19.038;2023-05-14T03:25:59;15.90;;;8.70;;
19189;SDS011;9727;50.200;19.038;2023-05-14T03:28:26;13.57;;;7.97;;
19189;SDS011;9727;50.200;19.038;2023-05-14T03:30:52;12.23;;;8.33;;
19189;SDS011;9727;50.200;19.038;2023-05-14T03:33:19;13.20;;;7.90;;
19189;SDS011;9727;50.200;19.038;2023-05-14T03:35:45;15.03;;;8.37;;
19189;SDS011;9727;50.200;19.038;2023-05-14T03:38:12;11.27;;;7.57;;
19189;SDS011;9727;50.200;19.038;2023-05-14T03:40:42;13.97;;;8.33;;
19189;SDS011;9727;50.200;19.038;2023-05-14T03:43:09;10.10;;;7.60;;
19189;SDS011;9727;50.200;19.038;2023-05-14T03:45:36;11.63;;;8.30;;
19189;SDS011;9727;50.200;19.038;2023-05-14T03:48:03;12.83;;;8.20;;
19189;SDS011;9727;50.200;19.038;2023-05-14T03:50:30;12.33;;;7.67;;
19189;SDS011;9727;50.200;19.038;2023-05-14T03:52:57;11.77;;;7.73;;
19189;SDS011;9727;50.200;19.038;2023-05-14T03:55:23;12.40;;;7.70;;
19189;SDS011;9727;50.200;19.038;2023-05-14T03:57:52;12.33;;;7.80;;
19189;SDS011;9727;50.200;19.038;2023-05-14T04:00:18;13.73;;;8.03;;
19189;SDS011;9727;50.200;19.038;2023-05-14T04:02:45;10.90;;;7.17;;
19189;SDS011;9727;50.200;19.038;2023-05-14T04:05:11;11.73;;;7.60;;
19189;SDS011;9727;50.200;19.038;2023-05-14T04:07:39;11.07;;;7.37;;
19189;SDS011;9727;50.200;19.038;2023-05-14T04:10:06;14.73;;;9.23;;
19189;SDS011;9727;50.200;19.038;2023-05-14T04:12:35;32.83;;;19.33;;
19189;SDS011;9727;50.200;19.038;2023-05-14T04:15:03;28.20;;;16.10;;
19189;SDS011;9727;50.200;19.038;2023-05-14T04:17:30;21.03;;;14.37;;
19189;SDS011;9727;50.200;19.038;2023-05-14T04:19:57;17.53;;;11.77;;
19189;SDS011;9727;50.200;19.038;2023-05-14T04:22:23;13.73;;;9.60;;
19189;SDS011;9727;50.200;19.038;2023-05-14T04:24:50;14.40;;;9.70;;
19189;SDS011;9727;50.200;19.038;2023-05-14T04:27:18;14.77;;;9.93;;
19189;SDS011;9727;50.200;19.038;2023-05-14T04:29:45;13.77;;;11.07;;
19189;SDS011;9727;50.200;19.038;2023-05-14T04:32:14;13.53;;;9.73;;
19189;SDS011;9727;50.200;19.038;2023-05-14T04:34:41;14.40;;;9.07;;
19189;SDS011;9727;50.200;19.038;2023-05-14T04:37:09;11.70;;;7.90;;
19189;SDS011;9727;50.200;19.038;2023-05-14T04:39:36;14.47;;;8.27;;
19189;SDS011;9727;50.200;19.038;2023-05-14T04:42:03;15.13;;;8.20;;
19189;SDS011;9727;50.200;19.038;2023-05-14T04:44:34;9.03;;;6.83;;
19189;SDS011;9727;50.200;19.038;2023-05-14T04:47:01;12.27;;;7.20;;
19189;SDS011;9727;50.200;19.038;2023-05-14T04:49:29;11.27;;;6.70;;
19189;SDS011;9727;50.200;19.038;2023-05-14T04:51:56;12.10;;;6.90;;
19189;SDS011;9727;50.200;19.038;2023-05-14T04:54:23;9.60;;;6.60;;
19189;SDS011;9727;50.200;19.038;2023-05-14T04:56:49;8.50;;;6.30;;
19189;SDS011;9727;50.200;19.038;2023-05-14T04:59:16;9.50;;;6.83;;
19189;SDS011;9727;50.200;19.038;2023-05-14T05:01:43;9.77;;;6.33;;
19189;SDS011;9727;50.200;19.038;2023-05-14T05:04:10;8.60;;;5.80;;
19189;SDS011;9727;50.200;19.038;2023-05-14T05:06:38;9.90;;;5.97;;
19189;SDS011;9727;50.200;19.038;2023-05-14T05:09:05;9.97;;;6.23;;
19189;SDS011;9727;50.200;19.038;2023-05-14T05:11:32;9.60;;;5.90;;
19189;SDS011;9727;50.200;19.038;2023-05-14T05:13:59;8.60;;;6.00;;
19189;SDS011;9727;50.200;19.038;2023-05-14T05:16:25;9.13;;;5.67;;
19189;SDS011;9727;50.200;19.038;2023-05-14T05:18:52;10.80;;;6.57;;
19189;SDS011;9727;50.200;19.038;2023-05-14T05:21:19;10.43;;;6.30;;
19189;SDS011;9727;50.200;19.038;2023-05-14T05:23:47;10.43;;;6.17;;
19189;SDS011;9727;50.200;19.038;2023-05-14T05:26:17;8.83;;;6.10;;
19189;SDS011;9727;50.200;19.038;2023-05-14T05:28:43;8.33;;;5.73;;
19189;SDS011;9727;50.200;19.038;2023-05-14T05:31:10;10.47;;;6.27;;
19189;SDS011;9727;50.200;19.038;2023-05-14T05:33:36;7.83;;;5.70;;
19189;SDS011;9727;50.200;19.038;2023-05-14T05:36:03;7.83;;;5.63;;
19189;SDS011;9727;50.200;19.038;2023-05-14T05:38:30;9.70;;;5.93;;
19189;SDS011;9727;50.200;19.038;2023-05-14T05:40:58;10.33;;;5.87;;
19189;SDS011;9727;50.200;19.038;2023-05-14T05:43:25;10.23;;;6.17;;
19189;SDS011;9727;50.200;19.038;2023-05-14T05:45:52;8.33;;;5.50;;
19189;SDS011;9727;50.200;19.038;2023-05-14T05:48:19;9.27;;;5.67;;
19189;SDS011;9727;50.200;19.038;2023-05-14T05:50:46;7.37;;;5.43;;
19189;SDS011;9727;50.200;19.038;2023-05-14T05:53:14;10.23;;;6.07;;
19189;SDS011;9727;50.200;19.038;2023-05-14T05:55:41;8.20;;;5.93;;
19189;SDS011;9727;50.200;19.038;2023-05-14T05:58:16;8.03;;;5.87;;
19189;SDS011;9727;50.200;19.038;2023-05-14T06:00:42;8.50;;;5.53;;
19189;SDS011;9727;50.200;19.038;2023-05-14T06:03:12;7.97;;;5.27;;
19189;SDS011;9727;50.200;19.038;2023-05-14T06:05:39;8.63;;;5.90;;
19189;SDS011;9727;50.200;19.038;2023-05-14T06:08:09;6.93;;;5.50;;
19189;SDS011;9727;50.200;19.038;2023-05-14T06:10:35;7.47;;;5.43;;
19189;SDS011;9727;50.200;19.038;2023-05-14T06:13:02;6.80;;;5.33;;
19189;SDS011;9727;50.200;19.038;2023-05-14T06:15:30;6.37;;;4.57;;
19189;SDS011;9727;50.200;19.038;2023-05-14T06:17:56;6.70;;;4.83;;
19189;SDS011;9727;50.200;19.038;2023-05-14T06:20:23;6.87;;;4.23;;
19189;SDS011;9727;50.200;19.038;2023-05-14T06:22:49;7.73;;;5.07;;
19189;SDS011;9727;50.200;19.038;2023-05-14T06:25:16;6.80;;;4.60;;
19189;SDS011;9727;50.200;19.038;2023-05-14T06:27:43;5.87;;;4.17;;
19189;SDS011;9727;50.200;19.038;2023-05-14T06:30:10;8.60;;;4.60;;
19189;SDS011;9727;50.200;19.038;2023-05-14T06:32:41;5.30;;;4.00;;
19189;SDS011;9727;50.200;19.038;2023-05-14T06:35:17;6.87;;;3.93;;
19189;SDS011;9727;50.200;19.038;2023-05-14T06:37:45;4.60;;;3.70;;
19189;SDS011;9727;50.200;19.038;2023-05-14T06:40:11;6.10;;;3.80;;
19189;SDS011;9727;50.200;19.038;2023-05-14T06:42:39;5.13;;;3.83;;
19189;SDS011;9727;50.200;19.038;2023-05-14T06:45:06;6.40;;;4.50;;
19189;SDS011;9727;50.200;19.038;2023-05-14T06:47:33;5.97;;;3.60;;
19189;SDS011;9727;50.200;19.038;2023-05-14T06:50:03;5.00;;;4.07;;
19189;SDS011;9727;50.200;19.038;2023-05-14T06:52:29;5.90;;;4.20;;
19189;SDS011;9727;50.200;19.038;2023-05-14T06:54:56;5.87;;;3.90;;
19189;SDS011;9727;50.200;19.038;2023-05-14T06:57:23;5.70;;;4.03;;
19189;SDS011;9727;50.200;19.038;2023-05-14T06:59:49;5.07;;;4.07;;
19189;SDS011;9727;50.200;19.038;2023-05-14T07:02:16;6.17;;;3.90;;
19189;SDS011;9727;50.200;19.038;2023-05-14T07:04:42;4.70;;;3.73;;
19189;SDS011;9727;50.200;19.038;2023-05-14T07:07:10;5.00;;;4.03;;
19189;SDS011;9727;50.200;19.038;2023-05-14T07:09:39;4.57;;;3.57;;
19189;SDS011;9727;50.200;19.038;2023-05-14T07:12:06;4.07;;;3.60;;
19189;SDS011;9727;50.200;19.038;2023-05-14T07:14:33;5.17;;;4.03;;
19189;SDS011;9727;50.200;19.038;2023-05-14T07:16:59;6.13;;;4.30;;
19189;SDS011;9727;50.200;19.038;2023-05-14T07:19:26;4.93;;;3.77;;
19189;SDS011;9727;50.200;19.038;2023-05-14T07:22:07;7.60;;;3.90;;
19189;SDS011;9727;50.200;19.038;2023-05-14T07:24:35;5.47;;;3.70;;
19189;SDS011;9727;50.200;19.038;2023-05-14T07:27:01;6.50;;;4.00;;
19189;SDS011;9727;50.200;19.038;2023-05-14T07:29:28;5.30;;;4.20;;
19189;SDS011;9727;50.200;19.038;2023-05-14T07:32:04;6.13;;;4.40;;
19189;SDS011;9727;50.200;19.038;2023-05-14T07:34:31;7.57;;;4.30;;
19189;SDS011;9727;50.200;19.038;2023-05-14T07:36:57;4.70;;;4.00;;
19189;SDS011;9727;50.200;19.038;2023-05-14T07:39:24;5.90;;;4.30;;
19189;SDS011;9727;50.200;19.038;2023-05-14T07:41:53;6.03;;;4.40;;
19189;SDS011;9727;50.200;19.038;2023-05-14T07:44:19;6.03;;;4.03;;
19189;SDS011;9727;50.200;19.038;2023-05-14T07:46:46;4.77;;;3.90;;
19189;SDS011;9727;50.200;19.038;2023-05-14T07:49:13;4.80;;;3.90;;
19189;SDS011;9727;50.200;19.038;2023-05-14T07:51:39;6.17;;;3.90;;
19189;SDS011;9727;50.200;19.038;2023-05-14T07:54:06;5.90;;;3.83;;
19189;SDS011;9727;50.200;19.038;2023-05-14T07:56:33;7.30;;;4.13;;
19189;SDS011;9727;50.200;19.038;2023-05-14T07:59:01;5.20;;;3.90;;
19189;SDS011;9727;50.200;19.038;2023-05-14T08:01:28;6.20;;;3.97;;
19189;SDS011;9727;50.200;19.038;2023-05-14T08:03:55;4.97;;;3.50;;
19189;SDS011;9727;50.200;19.038;2023-05-14T08:06:23;5.00;;;3.77;;
19189;SDS011;9727;50.200;19.038;2023-05-14T08:08:51;6.33;;;4.20;;
19189;SDS011;9727;50.200;19.038;2023-05-14T08:11:18;7.07;;;4.20;;
19189;SDS011;9727;50.200;19.038;2023-05-14T08:13:45;4.23;;;3.43;;
19189;SDS011;9727;50.200;19.038;2023-05-14T08:16:14;4.77;;;3.50;;
19189;SDS011;9727;50.200;19.038;2023-05-14T08:18:41;4.07;;;3.40;;
19189;SDS011;9727;50.200;19.038;2023-05-14T08:21:07;4.30;;;3.30;;
19189;SDS011;9727;50.200;19.038;2023-05-14T08:23:34;4.77;;;3.70;;
19189;SDS011;9727;50.200;19.038;2023-05-14T08:26:01;4.83;;;3.97;;
19189;SDS011;9727;50.200;19.038;2023-05-14T08:28:27;5.17;;;4.00;;
19189;SDS011;9727;50.200;19.038;2023-05-14T08:30:55;4.77;;;4.27;;
19189;SDS011;9727;50.200;19.038;2023-05-14T08:33:23;7.33;;;4.63;;
19189;SDS011;9727;50.200;19.038;2023-05-14T08:36:13;5.70;;;4.03;;
19189;SDS011;9727;50.200;19.038;2023-05-14T08:38:40;5.40;;;4.50;;
19189;SDS011;9727;50.200;19.038;2023-05-14T08:41:19;7.67;;;4.13;;
19189;SDS011;9727;50.200;19.038;2023-05-14T08:43:49;4.33;;;3.43;;
19189;SDS011;9727;50.200;19.038;2023-05-14T08:46:20;4.50;;;3.67;;
19189;SDS011;9727;50.200;19.038;2023-05-14T08:49:02;4.73;;;3.30;;
19189;SDS011;9727;50.200;19.038;2023-05-14T08:51:30;5.37;;;3.50;;
19189;SDS011;9727;50.200;19.038;2023-05-14T08:53:57;5.73;;;4.00;;
19189;SDS011;9727;50.200;19.038;2023-05-14T08:56:24;4.13;;;3.63;;
19189;SDS011;9727;50.200;19.038;2023-05-14T08:58:52;5.87;;;4.30;;
19189;SDS011;9727;50.200;19.038;2023-05-14T09:01:19;5.17;;;4.13;;
19189;SDS011;9727;50.200;19.038;2023-05-14T09:03:46;5.23;;;3.73;;
19189;SDS011;9727;50.200;19.038;2023-05-14T09:06:15;5.33;;;3.40;;
19189;SDS011;9727;50.200;19.038;2023-05-14T09:08:42;4.23;;;3.70;;
19189;SDS011;9727;50.200;19.038;2023-05-14T09:11:09;8.83;;;4.67;;
19189;SDS011;9727;50.200;19.038;2023-05-14T09:13:36;4.33;;;3.90;;
19189;SDS011;9727;50.200;19.038;2023-05-14T09:16:03;6.73;;;3.87;;
19189;SDS011;9727;50.200;19.038;2023-05-14T09:18:30;5.37;;;3.87;;
19189;SDS011;9727;50.200;19.038;2023-05-14T09:20:56;7.67;;;3.87;;
19189;SDS011;9727;50.200;19.038;2023-05-14T09:23:28;5.50;;;4.20;;
19189;SDS011;9727;50.200;19.038;2023-05-14T09:25:57;5.27;;;4.00;;
19189;SDS011;9727;50.200;19.038;2023-05-14T09:28:23;5.60;;;4.00;;
19189;SDS011;9727;50.200;19.038;2023-05-14T09:30:53;6.37;;;4.23;;
19189;SDS011;9727;50.200;19.038;2023-05-14T09:33:26;7.03;;;4.70;;
19189;SDS011;9727;50.200;19.038;2023-05-14T09:35:54;8.53;;;5.67;;
19189;SDS011;9727;50.200;19.038;2023-05-14T09:38:23;9.37;;;4.53;;
19189;SDS011;9727;50.200;19.038;2023-05-14T09:40:54;4.63;;;4.13;;
19189;SDS011;9727;50.200;19.038;2023-05-14T09:43:23;6.23;;;4.17;;
19189;SDS011;9727;50.200;19.038;2023-05-14T09:45:50;4.63;;;4.10;;
19189;SDS011;9727;50.200;19.038;2023-05-14T09:48:17;7.43;;;4.33;;
19189;SDS011;9727;50.200;19.038;2023-05-14T09:50:43;5.83;;;3.90;;
19189;SDS011;9727;50.200;19.038;2023-05-14T09:53:10;4.17;;;3.67;;
19189;SDS011;9727;50.200;19.038;2023-05-14T09:55:37;8.70;;;5.10;;
19189;SDS011;9727;50.200;19.038;2023-05-14T09:58:06;4.03;;;3.50;;
19189;SDS011;9727;50.200;19.038;2023-05-14T10:00:32;5.93;;;3.80;;
19189;SDS011;9727;50.200;19.038;2023-05-14T10:03:00;4.93;;;3.60;;
19189;SDS011;9727;50.200;19.038;2023-05-14T10:05:28;4.27;;;3.13;;
19189;SDS011;9727;50.200;19.038;2023-05-14T10:07:55;4.27;;;3.53;;
19189;SDS011;9727;50.200;19.038;2023-05-14T10:10:23;5.20;;;3.50;;
19189;SDS011;9727;50.200;19.038;2023-05-14T10:12:56;4.63;;;2.90;;
19189;SDS011;9727;50.200;19.038;2023-05-14T10:15:25;4.78;;;3.38;;
19189;SDS011;9727;50.200;19.038;2023-05-14T10:17:54;4.22;;;3.33;;
19189;SDS011;9727;50.200;19.038;2023-05-14T10:20:21;4.07;;;2.92;;
19189;SDS011;9727;50.200;19.038;2023-05-14T10:22:48;3.95;;;3.40;;
19189;SDS011;9727;50.200;19.038;2023-05-14T10:25:15;3.53;;;3.20;;
19189;SDS011;9727;50.200;19.038;2023-05-14T10:27:41;6.15;;;3.08;;
19189;SDS011;9727;50.200;19.038;2023-05-14T10:30:11;6.00;;;2.92;;
19189;SDS011;9727;50.200;19.038;2023-05-14T10:32:39;4.28;;;3.00;;
19189;SDS011;9727;50.200;19.038;2023-05-14T10:35:14;4.68;;;3.38;;
19189;SDS011;9727;50.200;19.038;2023-05-14T10:37:41;3.97;;;3.20;;
19189;SDS011;9727;50.200;19.038;2023-05-14T10:40:10;4.85;;;3.20;;
19189;SDS011;9727;50.200;19.038;2023-05-14T10:42:37;3.70;;;3.05;;
19189;SDS011;9727;50.200;19.038;2023-05-14T10:45:07;4.88;;;3.63;;
19189;SDS011;9727;50.200;19.038;2023-05-14T10:47:35;6.63;;;3.60;;
19189;SDS011;9727;50.200;19.038;2023-05-14T10:50:15;4.15;;;3.50;;
19189;SDS011;9727;50.200;19.038;2023-05-14T10:52:42;5.72;;;3.40;;
19189;SDS011;9727;50.200;19.038;2023-05-14T10:55:11;6.93;;;3.50;;
19189;SDS011;9727;50.200;19.038;2023-05-14T10:57:38;3.83;;;3.20;;
19189;SDS011;9727;50.200;19.038;2023-05-14T11:00:05;3.35;;;2.90;;
19189;SDS011;9727;50.200;19.038;2023-05-14T11:02:34;4.93;;;3.47;;
19189;SDS011;9727;50.200;19.038;2023-05-14T11:05:01;3.47;;;3.15;;
19189;SDS011;9727;50.200;19.038;2023-05-14T11:07:30;6.53;;;3.53;;
19189;SDS011;9727;50.200;19.038;2023-05-14T11:10:02;5.22;;;3.78;;
19189;SDS011;9727;50.200;19.038;2023-05-14T11:12:29;7.03;;;3.17;;
19189;SDS011;9727;50.200;19.038;2023-05-14T11:14:56;3.97;;;2.88;;
19189;SDS011;9727;50.200;19.038;2023-05-14T11:17:26;3.38;;;2.92;;
19189;SDS011;9727;50.200;19.038;2023-05-14T11:19:54;3.13;;;2.78;;
19189;SDS011;9727;50.200;19.038;2023-05-14T11:22:21;3.15;;;2.80;;
19189;SDS011;9727;50.200;19.038;2023-05-14T11:24:49;5.13;;;2.60;;
19189;SDS011;9727;50.200;19.038;2023-05-14T11:27:16;3.40;;;2.88;;
19189;SDS011;9727;50.200;19.038;2023-05-14T11:29:43;3.20;;;2.60;;
19189;SDS011;9727;50.200;19.038;2023-05-14T11:32:10;4.63;;;2.60;;
19189;SDS011;9727;50.200;19.038;2023-05-14T11:34:37;3.17;;;2.72;;
19189;SDS011;9727;50.200;19.038;2023-05-14T11:37:04;4.15;;;2.95;;
19189;SDS011;9727;50.200;19.038;2023-05-14T11:39:32;3.65;;;2.75;;
19189;SDS011;9727;50.200;19.038;2023-05-14T11:42:03;3.45;;;2.70;;
19189;SDS011;9727;50.200;19.038;2023-05-14T11:44:30;3.08;;;2.78;;
19189;SDS011;9727;50.200;19.038;2023-05-14T11:46:56;3.58;;;2.67;;
19189;SDS011;9727;50.200;19.038;2023-05-14T11:49:23;4.78;;;2.78;;
19189;SDS011;9727;50.200;19.038;2023-05-14T11:51:56;4.85;;;2.70;;
19189;SDS011;9727;50.200;19.038;2023-05-14T11:54:24;3.58;;;2.70;;
19189;SDS011;9727;50.200;19.038;2023-05-14T11:56:52;4.10;;;2.85;;
19189;SDS011;9727;50.200;19.038;2023-05-14T11:59:22;3.03;;;2.50;;
19189;SDS011;9727;50.200;19.038;2023-05-14T12:01:49;3.42;;;2.88;;
19189;SDS011;9727;50.200;19.038;2023-05-14T12:04:16;5.05;;;2.53;;
19189;SDS011;9727;50.200;19.038;2023-05-14T12:06:46;3.42;;;2.50;;
19189;SDS011;9727;50.200;19.038;2023-05-14T12:09:13;4.68;;;2.70;;
19189;SDS011;9727;50.200;19.038;2023-05-14T12:11:41;6.13;;;4.78;;
19189;SDS011;9727;50.200;19.038;2023-05-14T12:14:12;4.20;;;3.75;;
19189;SDS011;9727;50.200;19.038;2023-05-14T12:16:42;3.25;;;2.65;;
19189;SDS011;9727;50.200;19.038;2023-05-14T12:19:09;4.72;;;2.70;;
19189;SDS011;9727;50.200;19.038;2023-05-14T12:21:37;2.95;;;2.30;;
19189;SDS011;9727;50.200;19.038;2023-05-14T12:24:08;3.03;;;2.42;;
19189;SDS011;9727;50.200;19.038;2023-05-14T12:26:43;4.20;;;2.70;;
19189;SDS011;9727;50.200;19.038;2023-05-14T12:29:11;2.97;;;2.05;;
19189;SDS011;9727;50.200;19.038;2023-05-14T12:31:43;3.00;;;1.90;;
19189;SDS011;9727;50.200;19.038;2023-05-14T12:34:11;1.73;;;1.52;;
19189;SDS011;9727;50.200;19.038;2023-05-14T12:36:38;6.70;;;4.53;;
19189;SDS011;9727;50.200;19.038;2023-05-14T12:39:05;6.93;;;3.75;;
19189;SDS011;9727;50.200;19.038;2023-05-14T12:41:31;2.47;;;2.17;;
19189;SDS011;9727;50.200;19.038;2023-05-14T12:43:58;2.22;;;1.83;;
19189;SDS011;9727;50.200;19.038;2023-05-14T12:46:26;5.00;;;2.00;;
19189;SDS011;9727;50.200;19.038;2023-05-14T12:48:53;1.85;;;1.70;;
19189;SDS011;9727;50.200;19.038;2023-05-14T12:51:24;2.13;;;1.92;;
19189;SDS011;9727;50.200;19.038;2023-05-14T12:53:52;6.00;;;3.17;;
19189;SDS011;9727;50.200;19.038;2023-05-14T12:56:19;4.90;;;2.40;;
19189;SDS011;9727;50.200;19.038;2023-05-14T12:58:46;2.42;;;1.80;;
19189;SDS011;9727;50.200;19.038;2023-05-14T13:01:12;3.08;;;1.70;;
19189;SDS011;9727;50.200;19.038;2023-05-14T13:03:39;2.17;;;1.92;;
19189;SDS011;9727;50.200;19.038;2023-05-14T13:06:06;3.13;;;2.50;;
19189;SDS011;9727;50.200;19.038;2023-05-14T13:08:34;2.10;;;1.90;;
19189;SDS011;9727;50.200;19.038;2023-05-14T13:11:01;2.35;;;1.83;;
19189;SDS011;9727;50.200;19.038;2023-05-14T13:13:27;2.28;;;1.60;;
19189;SDS011;9727;50.200;19.038;2023-05-14T13:15:54;3.28;;;1.85;;
19189;SDS011;9727;50.200;19.038;2023-05-14T13:18:21;7.70;;;3.40;;
19189;SDS011;9727;50.200;19.038;2023-05-14T13:20:47;6.88;;;3.97;;
19189;SDS011;9727;50.200;19.038;2023-05-14T13:23:14;6.97;;;3.95;;
19189;SDS011;9727;50.200;19.038;2023-05-14T13:25:42;2.47;;;1.88;;
19189;SDS011;9727;50.200;19.038;2023-05-14T13:28:08;2.67;;;1.70;;
19189;SDS011;9727;50.200;19.038;2023-05-14T13:30:35;3.08;;;2.42;;
19189;SDS011;9727;50.200;19.038;2023-05-14T13:33:02;4.50;;;2.70;;
19189;SDS011;9727;50.200;19.038;2023-05-14T13:35:28;3.88;;;3.17;;
19189;SDS011;9727;50.200;19.038;2023-05-14T13:37:56;4.45;;;2.90;;
19189;SDS011;9727;50.200;19.038;2023-05-14T13:40:23;4.65;;;3.88;;
19189;SDS011;9727;50.200;19.038;2023-05-14T13:42:51;9.30;;;5.95;;
19189;SDS011;9727;50.200;19.038;2023-05-14T13:45:18;4.70;;;4.10;;
19189;SDS011;9727;50.200;19.038;2023-05-14T13:47:44;7.60;;;5.55;;
19189;SDS011;9727;50.200;19.038;2023-05-14T13:50:11;3.13;;;2.22;;
19189;SDS011;9727;50.200;19.038;2023-05-14T13:52:38;2.60;;;1.92;;
19189;SDS011;9727;50.200;19.038;2023-05-14T13:55:07;3.75;;;3.35;;
19189;SDS011;9727;50.200;19.038;2023-05-14T13:57:34;4.65;;;3.28;;
19189;SDS011;9727;50.200;19.038;2023-05-14T14:00:05;10.43;;;6.25;;
19189;SDS011;9727;50.200;19.038;2023-05-14T14:02:35;6.22;;;4.38;;
19189;SDS011;9727;50.200;19.038;2023-05-14T14:05:02;4.10;;;2.83;;
19189;SDS011;9727;50.200;19.038;2023-05-14T14:07:29;4.15;;;3.08;;
19189;SDS011;9727;50.200;19.038;2023-05-14T14:09:57;3.95;;;1.80;;
19189;SDS011;9727;50.200;19.038;2023-05-14T14:12:28;2.30;;;1.85;;
19189;SDS011;9727;50.200;19.038;2023-05-14T14:14:55;4.55;;;2.30;;
19189;SDS011;9727;50.200;19.038;2023-05-14T14:17:23;2.78;;;1.83;;
19189;SDS011;9727;50.200;19.038;2023-05-14T14:19:53;2.10;;;1.67;;
19189;SDS011;9727;50.200;19.038;2023-05-14T14:22:19;4.82;;;1.90;;
19189;SDS011;9727;50.200;19.038;2023-05-14T14:24:46;2.00;;;1.65;;
19189;SDS011;9727;50.200;19.038;2023-05-14T14:27:13;2.75;;;1.70;;
19189;SDS011;9727;50.200;19.038;2023-05-14T14:29:39;7.00;;;3.90;;
19189;SDS011;9727;50.200;19.038;2023-05-14T14:32:06;15.35;;;6.75;;
19189;SDS011;9727;50.200;19.038;2023-05-14T14:34:34;3.75;;;2.47;;
19189;SDS011;9727;50.200;19.038;2023-05-14T14:37:03;7.65;;;4.43;;
19189;SDS011;9727;50.200;19.038;2023-05-14T14:39:30;3.80;;;2.35;;
19189;SDS011;9727;50.200;19.038;2023-05-14T14:41:57;2.63;;;1.98;;
19189;SDS011;9727;50.200;19.038;2023-05-14T14:44:23;6.80;;;2.35;;
19189;SDS011;9727;50.200;19.038;2023-05-14T14:46:51;2.30;;;2.00;;